Time;durP1;ratioP1;P1;durP2;ratioP2;P2;SDS_P1;SDS_P2;PMS_P1;PMS_P2;Temp;Humidity;BMP_temperature;BMP_pressure;BME280_temperature;BME280_humidity;BME280_pressure;Samples;Min_cycle;Max_cycle;Signal;HPM_P1;HPM_P2
2023/01/19 00:01:54;;;;;;;9.70;7.47;;;;;;;;;;5217468;28;20105;-75
2023/01/19 00:04:26;;;;;;;10.93;8.07;;;;;;;;;;5216578;28;20026;-75
2023/01/19 00:06:57;;;;;;;12.57;8.80;;;;;;;;;;5216643;28;20120;-74
2023/01/19 00:09:32;;;;;;;11.33;8.70;;;;;;;;;;5216952;28;20074;-75
2023/01/19 00:12:03;;;;;;;10.97;8.57;;;;;;;;;;5216700;28;20022;-75
2023/01/19 00:14:35;;;;;;;10.97;8.40;;;;;;;;;;5216137;28;20022;-75
2023/01/19 00:17:06;;;;;;;9.33;8.33;;;;;;;;;;5216905;28;20029;-76
2023/01/19 00:19:37;;;;;;;13.13;8.83;;;;;;;;;;5217024;28;20511;-74
2023/01/19 00:22:08;;;;;;;11.67;9.37;;;;;;;;;;5216076;28;20025;-74
2023/01/19 00:24:39;;;;;;;8.80;7.90;;;;;;;;;;5216721;28;20456;-74
2023/01/19 00:27:10;;;;;;;11.97;8.43;;;;;;;;;;5216866;28;20354;-74
2023/01/19 00:29:42;;;;;;;10.00;7.77;;;;;;;;;;5215899;28;20656;-74
2023/01/19 00:32:13;;;;;;;9.03;7.77;;;;;;;;;;5216681;28;20064;-74
2023/01/19 00:34:48;;;;;;;9.70;7.67;;;;;;;;;;5215958;28;20014;-75
2023/01/19 00:37:19;;;;;;;11.60;8.00;;;;;;;;;;5216654;28;20381;-75
2023/01/19 00:39:50;;;;;;;8.43;7.33;;;;;;;;;;5216627;28;20033;-75
2023/01/19 00:42:39;;;;;;;8.77;7.23;;;;;;;;;;5216107;28;20018;-75
2023/01/19 00:45:12;;;;;;;12.70;8.27;;;;;;;;;;5216590;28;20022;-75
2023/01/19 00:47:44;;;;;;;10.27;7.80;;;;;;;;;;5216393;28;20058;-75
2023/01/19 00:50:15;;;;;;;9.70;7.70;;;;;;;;;;5215563;28;20038;-74
2023/01/19 00:52:46;;;;;;;9.67;7.77;;;;;;;;;;5216215;28;20469;-75
2023/01/19 00:55:18;;;;;;;11.73;8.33;;;;;;;;;;5216688;28;20022;-75
2023/01/19 00:57:49;;;;;;;11.17;7.60;;;;;;;;;;5215714;28;20018;-74
2023/01/19 01:00:20;;;;;;;10.87;8.07;;;;;;;;;;5216366;28;20026;-74
2023/01/19 01:02:52;;;;;;;9.60;8.37;;;;;;;;;;5215556;28;20047;-75
2023/01/19 01:05:23;;;;;;;8.27;7.00;;;;;;;;;;5216184;28;20510;-74
2023/01/19 01:07:54;;;;;;;11.47;7.73;;;;;;;;;;5216784;28;20061;-75
2023/01/19 01:10:27;;;;;;;12.10;7.80;;;;;;;;;;5215307;28;20056;-75
2023/01/19 01:12:58;;;;;;;9.70;7.23;;;;;;;;;;5216434;28;20046;-75
2023/01/19 01:15:30;;;;;;;11.67;7.37;;;;;;;;;;5215822;28;20030;-74
2023/01/19 01:18:01;;;;;;;12.53;7.87;;;;;;;;;;5215117;28;20022;-74
2023/01/19 01:20:33;;;;;;;10.43;8.17;;;;;;;;;;5216091;28;20014;-74
2023/01/19 01:23:04;;;;;;;10.60;7.23;;;;;;;;;;5216121;28;20018;-75
2023/01/19 01:25:37;;;;;;;10.93;7.17;;;;;;;;;;5218495;28;20026;-74
2023/01/19 01:28:08;;;;;;;10.77;6.93;;;;;;;;;;5219602;28;20025;-75
2023/01/19 01:30:39;;;;;;;8.70;6.33;;;;;;;;;;5219591;28;20022;-75
2023/01/19 01:33:11;;;;;;;10.97;6.73;;;;;;;;;;5218454;28;20109;-74
2023/01/19 01:35:42;;;;;;;9.27;6.97;;;;;;;;;;5219537;28;20037;-74
2023/01/19 01:38:13;;;;;;;9.00;6.27;;;;;;;;;;5218507;28;20022;-75
2023/01/19 01:40:44;;;;;;;8.50;6.23;;;;;;;;;;5219515;28;20025;-74
2023/01/19 01:43:17;;;;;;;8.50;6.47;;;;;;;;;;5219419;28;20032;-74
2023/01/19 01:45:48;;;;;;;9.83;5.83;;;;;;;;;;5218566;28;20044;-74
2023/01/19 01:48:21;;;;;;;8.80;6.30;;;;;;;;;;5218973;28;20054;-74
2023/01/19 01:53:48;;;;;;;7.97;5.43;;;;;;;;;;5218270;28;20124;-74
2023/01/19 01:56:22;;;;;;;10.57;6.23;;;;;;;;;;5219332;28;20110;-74
2023/01/19 01:58:53;;;;;;;7.53;5.47;;;;;;;;;;5218271;28;20460;-75
2023/01/19 02:04:14;;;;;;;8.47;5.33;;;;;;;;;;5219096;28;20033;-74
2023/01/19 02:15:17;;;;;;;8.50;5.33;;;;;;;;;;5218281;28;20017;-73
2023/01/19 02:17:49;;;;;;;10.97;4.60;;;;;;;;;;5218725;28;20036;-73
2023/01/19 02:20:23;;;;;;;8.10;4.23;;;;;;;;;;5218396;28;20014;-75
2023/01/19 02:22:55;;;;;;;7.33;4.00;;;;;;;;;;5218895;28;20014;-75
2023/01/19 02:25:27;;;;;;;8.97;4.57;;;;;;;;;;5218290;28;20018;-75
2023/01/19 02:27:58;;;;;;;6.93;4.30;;;;;;;;;;5218240;28;20510;-74
2023/01/19 02:30:30;;;;;;;9.50;5.37;;;;;;;;;;5218362;28;20113;-74
2023/01/19 02:33:01;;;;;;;8.57;5.03;;;;;;;;;;5218605;28;20029;-74
2023/01/19 02:35:33;;;;;;;10.90;5.57;;;;;;;;;;5217523;28;20163;-73
2023/01/19 02:38:05;;;;;;;7.33;4.90;;;;;;;;;;5218180;28;20022;-73
2023/01/19 02:40:37;;;;;;;9.83;5.57;;;;;;;;;;5218350;28;20461;-73
2023/01/19 02:43:09;;;;;;;9.70;5.20;;;;;;;;;;5217470;28;20017;-74
2023/01/19 02:45:41;;;;;;;7.97;5.20;;;;;;;;;;5218662;28;20510;-73
2023/01/19 02:48:13;;;;;;;7.80;5.47;;;;;;;;;;5217428;28;20057;-73
2023/01/19 02:50:48;;;;;;;7.83;5.07;;;;;;;;;;5217905;28;20022;-73
2023/01/19 02:53:31;;;;;;;7.97;5.43;;;;;;;;;;5218162;28;20558;-73
2023/01/19 02:56:32;;;;;;;8.90;5.90;;;;;;;;;;5217429;28;20022;-73
2023/01/19 02:59:27;;;;;;;9.37;6.10;;;;;;;;;;5226436;28;20038;-73
2023/01/19 03:01:59;;;;;;;8.03;5.37;;;;;;;;;;5218725;28;20026;-73
2023/01/19 03:04:49;;;;;;;10.23;5.77;;;;;;;;;;5217574;28;20022;-73
2023/01/19 03:07:29;;;;;;;6.50;5.70;;;;;;;;;;5218041;28;20496;-73
2023/01/19 03:10:13;;;;;;;7.80;5.50;;;;;;;;;;5217261;28;20018;-74
2023/01/19 03:12:58;;;;;;;6.70;5.90;;;;;;;;;;5217852;28;20133;-74
2023/01/19 03:15:49;;;;;;;9.93;7.43;;;;;;;;;;5217546;28;20021;-73
2023/01/19 03:18:23;;;;;;;9.03;7.10;;;;;;;;;;5216770;28;20369;-74
2023/01/19 03:20:56;;;;;;;8.00;7.07;;;;;;;;;;5218033;28;20040;-73
2023/01/19 03:23:30;;;;;;;7.37;6.47;;;;;;;;;;5216662;28;20552;-73
2023/01/19 03:26:02;;;;;;;8.33;6.10;;;;;;;;;;5217843;28;20025;-74
2023/01/19 03:28:33;;;;;;;6.77;6.07;;;;;;;;;;5217717;28;20018;-74
2023/01/19 03:31:09;;;;;;;8.17;6.50;;;;;;;;;;5216754;28;20022;-74
2023/01/19 03:33:42;;;;;;;6.57;5.73;;;;;;;;;;5217720;28;20064;-74
2023/01/19 03:36:17;;;;;;;7.07;6.37;;;;;;;;;;5217523;28;20025;-74
2023/01/19 03:38:49;;;;;;;7.80;6.60;;;;;;;;;;5216614;28;20026;-74
2023/01/19 03:41:21;;;;;;;8.13;7.33;;;;;;;;;;5217348;28;20360;-74
2023/01/19 03:43:53;;;;;;;7.40;6.43;;;;;;;;;;5217631;28;20022;-75
2023/01/19 03:46:25;;;;;;;7.90;7.10;;;;;;;;;;5215768;28;20096;-74
2023/01/19 03:48:57;;;;;;;6.57;5.87;;;;;;;;;;5217418;28;20144;-75
2023/01/19 03:51:28;;;;;;;6.17;5.67;;;;;;;;;;5216087;28;20223;-75
2023/01/19 03:54:00;;;;;;;5.90;5.33;;;;;;;;;;5217066;28;20044;-75
2023/01/19 03:56:31;;;;;;;5.83;5.23;;;;;;;;;;5217109;28;20022;-75
2023/01/19 03:59:04;;;;;;;6.00;5.27;;;;;;;;;;5216160;28;20526;-74
2023/01/19 04:01:35;;;;;;;5.50;5.00;;;;;;;;;;5217060;28;20029;-75
2023/01/19 04:04:07;;;;;;;5.00;4.60;;;;;;;;;;5216799;28;20382;-75
2023/01/19 04:06:38;;;;;;;6.10;5.03;;;;;;;;;;5216430;28;20032;-74
2023/01/19 04:09:09;;;;;;;4.47;4.07;;;;;;;;;;5216781;28;20022;-74
2023/01/19 04:11:41;;;;;;;4.53;4.13;;;;;;;;;;5216740;28;20046;-74
2023/01/19 04:14:12;;;;;;;4.30;3.90;;;;;;;;;;5216206;28;20018;-75
2023/01/19 04:16:43;;;;;;;3.83;3.53;;;;;;;;;;5216908;28;20025;-74
2023/01/19 04:19:15;;;;;;;2.87;2.57;;;;;;;;;;5217203;28;20025;-74
2023/01/19 04:21:49;;;;;;;2.93;2.63;;;;;;;;;;5216372;28;20045;-75
2023/01/19 04:24:20;;;;;;;2.70;2.27;;;;;;;;;;5217189;28;20018;-76
2023/01/19 04:26:52;;;;;;;2.90;2.50;;;;;;;;;;5216099;28;20713;-75
2023/01/19 04:29:23;;;;;;;2.53;2.00;;;;;;;;;;5216575;28;20096;-75
2023/01/19 04:31:55;;;;;;;2.23;1.60;;;;;;;;;;5217144;28;20025;-75
2023/01/19 04:34:26;;;;;;;1.80;1.30;;;;;;;;;;5215897;28;20071;-75
2023/01/19 04:36:57;;;;;;;1.37;0.80;;;;;;;;;;5216907;28;20032;-74
2023/01/19 04:39:28;;;;;;;1.30;0.80;;;;;;;;;;5216433;28;20481;-74
2023/01/19 04:41:59;;;;;;;1.12;0.70;;;;;;;;;;5215876;28;20025;-75
2023/01/19 04:44:31;;;;;;;1.20;0.73;;;;;;;;;;5216667;28;20018;-74
2023/01/19 04:47:02;;;;;;;1.57;0.90;;;;;;;;;;5216528;28;20097;-74
2023/01/19 04:49:36;;;;;;;1.27;0.70;;;;;;;;;;5215672;28;20497;-74
2023/01/19 04:52:07;;;;;;;1.00;0.60;;;;;;;;;;5216351;28;20030;-74
2023/01/19 04:54:38;;;;;;;1.53;0.60;;;;;;;;;;5216374;28;20036;-74
2023/01/19 04:57:10;;;;;;;2.17;0.70;;;;;;;;;;5215790;28;20017;-75
2023/01/19 04:59:41;;;;;;;1.50;0.80;;;;;;;;;;5218588;28;20435;-74
2023/01/19 05:02:12;;;;;;;1.60;1.00;;;;;;;;;;5219240;28;20018;-75
2023/01/19 05:04:43;;;;;;;1.57;1.10;;;;;;;;;;5219568;28;20033;-74
2023/01/19 05:07:14;;;;;;;1.90;1.30;;;;;;;;;;5222633;28;20525;-75
2023/01/19 05:09:46;;;;;;;2.30;1.30;;;;;;;;;;5224358;28;20022;-75
2023/01/19 05:12:17;;;;;;;2.93;1.40;;;;;;;;;;5219900;28;20076;-74
2023/01/19 05:14:48;;;;;;;1.90;1.20;;;;;;;;;;5219744;28;20026;-74
2023/01/19 05:17:19;;;;;;;1.70;1.10;;;;;;;;;;5219105;28;20117;-74
2023/01/19 05:19:50;;;;;;;2.03;0.90;;;;;;;;;;5219622;28;20071;-75
2023/01/19 05:22:21;;;;;;;1.57;0.87;;;;;;;;;;5219885;28;20473;-75
2023/01/19 05:24:53;;;;;;;2.00;0.90;;;;;;;;;;5219074;28;20109;-75
2023/01/19 05:27:24;;;;;;;2.10;1.73;;;;;;;;;;5219285;28;20063;-75
2023/01/19 05:29:55;;;;;;;2.27;1.70;;;;;;;;;;5219521;28;20026;-75
2023/01/19 05:32:26;;;;;;;3.47;2.50;;;;;;;;;;5219211;28;20042;-75
2023/01/19 05:34:58;;;;;;;3.70;3.30;;;;;;;;;;5220057;28;20427;-75
2023/01/19 05:37:31;;;;;;;4.60;4.20;;;;;;;;;;5218375;28;20030;-75
2023/01/19 05:40:02;;;;;;;5.63;5.13;;;;;;;;;;5219551;28;20014;-75
2023/01/19 05:42:34;;;;;;;6.70;5.47;;;;;;;;;;5219361;28;20449;-76
2023/01/19 05:45:06;;;;;;;6.20;5.60;;;;;;;;;;5218904;28;20033;-76
2023/01/19 05:47:38;;;;;;;6.17;5.67;;;;;;;;;;5219330;28;20053;-76
2023/01/19 05:50:09;;;;;;;5.47;5.00;;;;;;;;;;5219413;28;20381;-76
2023/01/19 05:52:41;;;;;;;5.47;4.97;;;;;;;;;;5218490;28;20041;-76
2023/01/19 05:55:13;;;;;;;7.37;5.50;;;;;;;;;;5219521;28;20385;-76
2023/01/19 05:57:44;;;;;;;7.00;6.27;;;;;;;;;;5219325;28;20025;-76
2023/01/19 06:00:16;;;;;;;6.17;5.57;;;;;;;;;;5218792;28;20018;-76
2023/01/19 06:02:48;;;;;;;6.20;5.60;;;;;;;;;;5219236;28;20054;-76
2023/01/19 06:05:19;;;;;;;7.00;5.57;;;;;;;;;;5218632;28;20029;-76
2023/01/19 06:07:51;;;;;;;5.60;5.03;;;;;;;;;;5218992;28;20030;-76
2023/01/19 06:10:22;;;;;;;6.63;5.97;;;;;;;;;;5218593;28;20473;-76
2023/01/19 06:12:53;;;;;;;7.57;6.87;;;;;;;;;;5218159;28;20041;-75
2023/01/19 06:15:24;;;;;;;8.30;6.40;;;;;;;;;;5218533;28;20018;-75
2023/01/19 06:17:56;;;;;;;7.70;6.90;;;;;;;;;;5219019;28;20122;-75
2023/01/19 06:20:27;;;;;;;7.47;6.70;;;;;;;;;;5217745;28;20018;-75
2023/01/19 06:22:58;;;;;;;6.80;6.10;;;;;;;;;;5219023;28;20444;-75
2023/01/19 06:25:29;;;;;;;7.10;6.40;;;;;;;;;;5218234;28;20032;-75
2023/01/19 06:28:00;;;;;;;7.37;6.50;;;;;;;;;;5217825;28;20036;-76
2023/01/19 06:30:32;;;;;;;8.07;6.67;;;;;;;;;;5218823;28;20017;-75
2023/01/19 06:33:03;;;;;;;7.20;6.50;;;;;;;;;;5218737;28;20041;-75
2023/01/19 06:35:34;;;;;;;7.37;6.70;;;;;;;;;;5217787;28;20025;-76
2023/01/19 06:38:05;;;;;;;8.70;7.80;;;;;;;;;;5218561;28;20050;-75
2023/01/19 06:40:37;;;;;;;9.17;7.80;;;;;;;;;;5217888;28;20477;-76
2023/01/19 06:43:08;;;;;;;10.17;8.67;;;;;;;;;;5218765;28;20358;-76
2023/01/19 06:45:39;;;;;;;9.03;8.13;;;;;;;;;;5218501;28;20017;-76
2023/01/19 06:48:10;;;;;;;10.23;9.20;;;;;;;;;;5217639;28;20046;-75
2023/01/19 06:50:43;;;;;;;11.10;10.00;;;;;;;;;;5218390;28;20034;-75
2023/01/19 06:53:15;;;;;;;11.97;10.80;;;;;;;;;;5218519;28;20458;-76
2023/01/19 06:55:47;;;;;;;12.67;11.47;;;;;;;;;;5217738;28;20026;-76
2023/01/19 06:58:18;;;;;;;11.50;10.40;;;;;;;;;;5218441;28;20033;-76
2023/01/19 07:00:50;;;;;;;12.67;11.37;;;;;;;;;;5218432;28;20388;-76
2023/01/19 07:03:22;;;;;;;12.77;11.47;;;;;;;;;;5217882;28;20026;-76
2023/01/19 07:05:53;;;;;;;12.10;10.70;;;;;;;;;;5220819;28;20014;-76
2023/01/19 07:08:24;;;;;;;12.70;11.47;;;;;;;;;;5218787;28;20036;-75
2023/01/19 07:11:04;;;;;;;12.60;11.43;;;;;;;;;;5218487;28;20022;-76
2023/01/19 07:13:36;;;;;;;12.50;11.27;;;;;;;;;;5218019;28;20496;-75
2023/01/19 07:16:09;;;;;;;12.57;11.00;;;;;;;;;;5217037;28;20018;-75
2023/01/19 07:18:40;;;;;;;13.50;12.10;;;;;;;;;;5217974;28;20131;-76
2023/01/19 07:21:12;;;;;;;13.10;11.80;;;;;;;;;;5217156;28;20492;-75
2023/01/19 07:23:46;;;;;;;13.27;11.70;;;;;;;;;;5217221;28;20022;-76
2023/01/19 07:26:20;;;;;;;17.60;13.33;;;;;;;;;;5217823;28;20017;-76
2023/01/19 07:28:51;;;;;;;18.43;14.03;;;;;;;;;;5218105;28;20017;-76
2023/01/19 07:31:22;;;;;;;18.20;13.93;;;;;;;;;;5217113;28;20026;-76
2023/01/19 07:33:53;;;;;;;15.33;13.73;;;;;;;;;;5217830;28;20063;-76
2023/01/19 07:36:24;;;;;;;16.73;14.47;;;;;;;;;;5217433;28;20018;-75
2023/01/19 07:38:56;;;;;;;16.40;14.70;;;;;;;;;;5217115;28;20026;-75
2023/01/19 07:41:27;;;;;;;16.40;13.40;;;;;;;;;;5217293;28;20042;-75
2023/01/19 07:43:58;;;;;;;15.23;13.60;;;;;;;;;;5217211;28;20057;-75
2023/01/19 07:46:29;;;;;;;17.27;13.67;;;;;;;;;;5217138;28;20026;-75
2023/01/19 07:49:00;;;;;;;18.30;13.73;;;;;;;;;;5217048;28;20052;-76
2023/01/19 07:51:31;;;;;;;17.03;12.87;;;;;;;;;;5211980;28;20105;-74
2023/01/19 07:54:03;;;;;;;16.23;12.70;;;;;;;;;;5236996;28;20476;-75
2023/01/19 07:56:34;;;;;;;18.23;13.30;;;;;;;;;;5236586;28;20021;-75
2023/01/19 07:59:08;;;;;;;17.73;13.43;;;;;;;;;;5235948;28;20017;-74
2023/01/19 08:01:39;;;;;;;17.97;14.07;;;;;;;;;;5237028;28;20013;-75
2023/01/19 08:04:10;;;;;;;21.97;13.80;;;;;;;;;;5232001;28;20139;-75
2023/01/19 08:06:43;;;;;;;17.93;14.40;;;;;;;;;;5230420;28;20018;-75
2023/01/19 08:09:14;;;;;;;15.33;13.43;;;;;;;;;;5237020;28;20042;-75
2023/01/19 08:11:45;;;;;;;19.13;15.67;;;;;;;;;;5236540;28;20165;-75
2023/01/19 08:14:17;;;;;;;27.70;16.17;;;;;;;;;;5236587;28;20014;-75
2023/01/19 08:16:48;;;;;;;21.97;16.30;;;;;;;;;;5236756;28;20392;-75
2023/01/19 08:19:19;;;;;;;20.33;16.13;;;;;;;;;;5236651;28;20025;-75
2023/01/19 08:21:50;;;;;;;22.70;16.60;;;;;;;;;;5237329;28;20029;-75
2023/01/19 08:24:24;;;;;;;23.33;16.63;;;;;;;;;;5237115;28;20118;-75
2023/01/19 08:26:59;;;;;;;26.77;18.33;;;;;;;;;;5236640;28;20029;-75
2023/01/19 08:29:30;;;;;;;21.60;16.63;;;;;;;;;;5237144;28;20040;-75
2023/01/19 08:32:01;;;;;;;23.47;16.97;;;;;;;;;;5237173;28;20033;-75
2023/01/19 08:34:33;;;;;;;25.00;16.93;;;;;;;;;;5236269;28;20071;-75
2023/01/19 08:37:04;;;;;;;22.77;15.90;;;;;;;;;;5236962;28;20469;-75
2023/01/19 08:39:35;;;;;;;29.67;18.83;;;;;;;;;;5237253;28;20030;-75
2023/01/19 08:42:06;;;;;;;29.13;19.43;;;;;;;;;;5236585;28;20075;-74
2023/01/19 08:44:38;;;;;;;26.00;18.70;;;;;;;;;;5237068;28;20017;-73
2023/01/19 08:47:09;;;;;;;28.93;18.90;;;;;;;;;;5236130;28;20049;-74
2023/01/19 08:49:40;;;;;;;29.57;20.07;;;;;;;;;;5236720;28;20096;-75
2023/01/19 08:52:12;;;;;;;29.30;18.37;;;;;;;;;;5237151;28;20390;-75
2023/01/19 08:54:43;;;;;;;29.40;18.90;;;;;;;;;;5236531;28;20090;-75
2023/01/19 08:57:15;;;;;;;31.87;19.43;;;;;;;;;;5236949;28;20053;-75
2023/01/19 08:59:46;;;;;;;30.40;19.87;;;;;;;;;;5236942;28;20036;-76
2023/01/19 09:02:17;;;;;;;26.27;18.17;;;;;;;;;;5235986;28;20368;-75
2023/01/19 09:04:48;;;;;;;30.53;19.13;;;;;;;;;;5237194;28;20392;-76
2023/01/19 09:07:20;;;;;;;29.90;18.83;;;;;;;;;;5237155;28;20116;-75
2023/01/19 09:09:52;;;;;;;28.73;18.97;;;;;;;;;;5236187;28;20101;-75
2023/01/19 09:12:23;;;;;;;27.97;19.33;;;;;;;;;;5236523;28;20113;-74
2023/01/19 09:14:54;;;;;;;28.30;19.07;;;;;;;;;;5236875;28;20014;-75
2023/01/19 09:17:25;;;;;;;28.50;19.87;;;;;;;;;;5236155;28;20108;-74
2023/01/19 09:19:57;;;;;;;29.50;19.37;;;;;;;;;;5236971;28;20026;-74
2023/01/19 09:22:28;;;;;;;31.70;19.67;;;;;;;;;;5235660;28;20045;-76
2023/01/19 09:24:59;;;;;;;29.20;19.40;;;;;;;;;;5236772;28;20026;-75
2023/01/19 09:27:31;;;;;;;28.40;18.02;;;;;;;;;;5236708;28;20026;-76
2023/01/19 09:30:03;;;;;;;29.88;19.30;;;;;;;;;;5236049;28;20026;-75
2023/01/19 09:32:34;;;;;;;30.73;19.30;;;;;;;;;;5236408;28;20033;-75
2023/01/19 09:35:05;;;;;;;28.55;18.38;;;;;;;;;;5236431;28;20452;-75
2023/01/19 09:37:36;;;;;;;27.33;17.98;;;;;;;;;;5235764;28;20363;-75
2023/01/19 09:40:10;;;;;;;25.67;17.23;;;;;;;;;;5236501;28;20092;-75
2023/01/19 09:42:43;;;;;;;24.27;15.93;;;;;;;;;;5236543;28;20021;-75
2023/01/19 09:45:18;;;;;;;27.23;16.93;;;;;;;;;;5236965;28;20387;-75
2023/01/19 09:47:50;;;;;;;21.85;15.00;;;;;;;;;;5239598;28;20423;-76
2023/01/19 09:50:27;;;;;;;22.17;14.77;;;;;;;;;;5239117;28;20029;-75
2023/01/19 09:53:12;;;;;;;20.43;15.63;;;;;;;;;;5240177;28;20056;-75
2023/01/19 09:55:44;;;;;;;21.92;14.77;;;;;;;;;;5239666;28;20060;-75
2023/01/19 09:58:17;;;;;;;19.40;13.85;;;;;;;;;;5238715;28;20049;-75
2023/01/19 10:00:51;;;;;;;18.73;13.00;;;;;;;;;;5239721;28;20025;-76
2023/01/19 10:03:22;;;;;;;23.45;12.93;;;;;;;;;;5239749;28;20017;-76
2023/01/19 10:06:00;;;;;;;21.85;12.50;;;;;;;;;;5238701;28;20028;-75
2023/01/19 10:08:54;;;;;;;17.67;11.80;;;;;;;;;;5239562;28;20022;-75
2023/01/19 10:11:31;;;;;;;17.35;11.90;;;;;;;;;;5243427;27;20034;-75
2023/01/19 10:14:04;;;;;;;16.20;10.68;;;;;;;;;;5239505;28;20047;-75
2023/01/19 10:16:51;;;;;;;19.45;11.00;;;;;;;;;;5239397;28;20356;-75
2023/01/19 10:19:26;;;;;;;16.20;10.93;;;;;;;;;;5238806;28;20078;-75
2023/01/19 10:21:59;;;;;;;13.05;9.50;;;;;;;;;;5239685;28;20029;-75
2023/01/19 10:24:39;;;;;;;15.88;10.07;;;;;;;;;;5239160;28;20070;-75
2023/01/19 10:27:17;;;;;;;14.25;9.75;;;;;;;;;;5238446;28;20048;-75
2023/01/19 10:29:48;;;;;;;13.03;10.00;;;;;;;;;;5239372;28;20025;-75
2023/01/19 10:32:21;;;;;;;14.23;9.15;;;;;;;;;;5238153;28;20030;-74
2023/01/19 10:34:53;;;;;;;16.70;9.23;;;;;;;;;;5239174;28;20066;-75
2023/01/19 10:37:28;;;;;;;13.07;9.88;;;;;;;;;;5238868;28;20030;-75
2023/01/19 10:40:12;;;;;;;12.43;8.85;;;;;;;;;;5238195;28;20136;-75
2023/01/19 10:42:43;;;;;;;16.33;10.30;;;;;;;;;;5239252;28;20060;-75
2023/01/19 10:45:15;;;;;;;19.85;9.40;;;;;;;;;;5239001;28;20022;-74
2023/01/19 10:47:47;;;;;;;14.20;9.23;;;;;;;;;;5237952;28;20049;-74
2023/01/19 10:50:24;;;;;;;15.13;9.18;;;;;;;;;;5238981;28;20022;-74
2023/01/19 10:52:56;;;;;;;16.67;10.07;;;;;;;;;;5238952;28;20033;-74
2023/01/19 10:55:29;;;;;;;13.40;8.57;;;;;;;;;;5237946;28;20017;-75
2023/01/19 10:58:01;;;;;;;13.65;9.55;;;;;;;;;;5238891;28;20115;-74
2023/01/19 11:00:36;;;;;;;13.10;9.43;;;;;;;;;;5238175;28;20038;-75
2023/01/19 11:03:28;;;;;;;16.38;10.65;;;;;;;;;;5238788;28;20045;-75
2023/01/19 11:06:14;;;;;;;14.20;9.63;;;;;;;;;;5238691;28;20365;-75
2023/01/19 11:08:46;;;;;;;16.58;10.02;;;;;;;;;;5238153;28;20049;-75
2023/01/19 11:11:19;;;;;;;17.65;9.63;;;;;;;;;;5238718;28;20025;-76
2023/01/19 11:14:10;;;;;;;16.17;10.38;;;;;;;;;;5238642;28;20026;-74
2023/01/19 11:16:45;;;;;;;17.70;10.90;;;;;;;;;;5237818;28;20051;-74
2023/01/19 11:19:17;;;;;;;17.65;10.95;;;;;;;;;;5238482;28;20029;-77
2023/01/19 11:21:49;;;;;;;15.77;9.82;;;;;;;;;;5237581;28;20129;-74
2023/01/19 11:24:21;;;;;;;20.75;11.82;;;;;;;;;;5238194;28;20112;-74
2023/01/19 11:26:56;;;;;;;14.75;10.45;;;;;;;;;;5238553;28;20040;-75
2023/01/19 11:29:27;;;;;;;17.95;10.13;;;;;;;;;;5237255;28;20018;-75
2023/01/19 11:32:09;;;;;;;15.00;10.05;;;;;;;;;;5237976;28;20034;-75
2023/01/19 11:34:40;;;;;;;16.52;9.55;;;;;;;;;;5238031;28;20021;-76
2023/01/19 11:37:14;;;;;;;16.02;9.50;;;;;;;;;;5237477;28;20028;-76
2023/01/19 11:39:46;;;;;;;14.60;9.07;;;;;;;;;;5238132;28;20025;-76
2023/01/19 11:42:19;;;;;;;15.88;9.88;;;;;;;;;;5237910;28;20035;-74
2023/01/19 11:44:50;;;;;;;16.95;9.65;;;;;;;;;;5237490;28;20013;-74
2023/01/19 11:47:31;;;;;;;14.92;9.18;;;;;;;;;;5237854;28;20037;-74
2023/01/19 11:50:02;;;;;;;15.57;8.43;;;;;;;;;;5237301;28;20404;-73
2023/01/19 11:52:40;;;;;;;13.15;9.60;;;;;;;;;;5237682;28;20034;-74
2023/01/19 11:55:30;;;;;;;14.95;9.00;;;;;;;;;;5237786;28;20070;-73
2023/01/19 11:58:01;;;;;;;15.80;9.30;;;;;;;;;;5237080;28;20033;-74
2023/01/19 12:03:05;;;;;;;15.85;8.93;;;;;;;;;;5302632;23;20134;-75
2023/01/19 12:05:37;;;;;;;14.93;8.32;;;;;;;;;;5196229;28;20030;-75
2023/01/19 12:08:13;;;;;;;11.77;8.57;;;;;;;;;;5196196;28;20030;-75
2023/01/19 12:10:45;;;;;;;17.02;8.68;;;;;;;;;;5195876;28;20022;-75
2023/01/19 12:13:24;;;;;;;16.27;8.27;;;;;;;;;;5196399;28;20105;-74
2023/01/19 12:15:58;;;;;;;14.50;8.07;;;;;;;;;;5196919;28;20032;-73
2023/01/19 12:18:34;;;;;;;12.90;7.47;;;;;;;;;;5195812;28;20105;-74
2023/01/19 12:21:05;;;;;;;12.85;7.20;;;;;;;;;;5196292;28;20107;-74
2023/01/19 12:24:02;;;;;;;14.05;6.82;;;;;;;;;;5196000;28;20042;-75
2023/01/19 12:26:38;;;;;;;13.27;8.15;;;;;;;;;;5195817;28;20458;-76
2023/01/19 12:29:14;;;;;;;10.43;6.90;;;;;;;;;;5196459;28;20026;-75
2023/01/19 12:32:05;;;;;;;11.85;7.20;;;;;;;;;;5196207;28;20057;-75
2023/01/19 12:34:47;;;;;;;13.32;7.18;;;;;;;;;;5196069;28;20058;-74
2023/01/19 12:37:27;;;;;;;12.73;7.13;;;;;;;;;;5196356;28;20034;-76
2023/01/19 12:40:00;;;;;;;15.27;6.68;;;;;;;;;;5196048;28;20083;-75
2023/01/19 12:42:32;;;;;;;17.20;8.07;;;;;;;;;;5196209;28;20042;-75
2023/01/19 12:45:05;;;;;;;12.55;6.93;;;;;;;;;;5196213;28;20053;-76
2023/01/19 12:47:37;;;;;;;14.02;7.40;;;;;;;;;;5195312;28;20075;-76
2023/01/19 12:50:18;;;;;;;10.93;6.72;;;;;;;;;;5196063;28;20011;-75
2023/01/19 12:52:55;;;;;;;12.98;7.32;;;;;;;;;;5196144;28;20121;-75
2023/01/19 12:55:34;;;;;;;10.52;7.55;;;;;;;;;;5195247;28;20082;-74
2023/01/19 12:58:07;;;;;;;13.63;7.95;;;;;;;;;;5196099;28;20018;-75
2023/01/19 13:00:39;;;;;;;12.57;7.38;;;;;;;;;;5195476;28;20042;-75
2023/01/19 13:03:16;;;;;;;12.57;7.25;;;;;;;;;;5195503;28;20046;-74
2023/01/19 13:05:49;;;;;;;12.68;7.55;;;;;;;;;;5195533;28;20034;-75
2023/01/19 13:08:41;;;;;;;13.02;8.40;;;;;;;;;;5195262;28;20473;-75
2023/01/19 13:11:13;;;;;;;12.82;8.02;;;;;;;;;;5209208;28;20034;-76
2023/01/19 13:14:04;;;;;;;10.95;7.40;;;;;;;;;;5195917;28;20045;-75
2023/01/19 13:16:36;;;;;;;14.32;7.70;;;;;;;;;;5235810;28;20038;-75
2023/01/19 13:19:18;;;;;;;9.10;6.38;;;;;;;;;;5195902;28;20100;-76
2023/01/19 13:21:50;;;;;;;10.43;6.88;;;;;;;;;;5198699;28;20045;-75
2023/01/19 13:24:22;;;;;;;12.15;7.65;;;;;;;;;;5199231;28;20038;-75
2023/01/19 13:26:56;;;;;;;12.98;8.57;;;;;;;;;;5199230;28;20022;-75
2023/01/19 13:29:34;;;;;;;14.50;10.07;;;;;;;;;;5198408;28;20019;-75
2023/01/19 13:32:14;;;;;;;22.83;10.07;;;;;;;;;;5199262;28;20042;-76
2023/01/19 13:34:50;;;;;;;12.50;9.68;;;;;;;;;;5199054;28;20019;-75
2023/01/19 13:37:23;;;;;;;17.60;10.45;;;;;;;;;;5198269;28;20117;-75
2023/01/19 13:39:54;;;;;;;14.65;9.85;;;;;;;;;;5195646;28;20019;-75
2023/01/19 13:42:33;;;;;;;15.45;10.30;;;;;;;;;;5198027;28;20029;-76
2023/01/19 13:45:25;;;;;;;15.10;10.10;;;;;;;;;;5199023;28;20062;-73
2023/01/19 13:47:57;;;;;;;16.10;10.38;;;;;;;;;;5199413;28;20019;-73
2023/01/19 13:50:29;;;;;;;16.00;11.23;;;;;;;;;;5197907;28;20071;-73
2023/01/19 13:53:03;;;;;;;13.23;9.82;;;;;;;;;;5198839;28;20026;-73
2023/01/19 13:55:34;;;;;;;17.38;11.75;;;;;;;;;;5198651;28;20018;-74
2023/01/19 13:58:18;;;;;;;15.80;10.93;;;;;;;;;;5198252;28;20040;-73
2023/01/19 14:00:49;;;;;;;17.25;10.88;;;;;;;;;;5198751;28;20524;-73
2023/01/19 14:03:22;;;;;;;17.52;12.32;;;;;;;;;;5197860;28;20026;-74
2023/01/19 14:05:53;;;;;;;19.52;12.35;;;;;;;;;;5198519;28;20377;-73
2023/01/19 14:08:25;;;;;;;16.77;12.20;;;;;;;;;;5198297;28;20037;-73
2023/01/19 14:10:58;;;;;;;19.02;12.40;;;;;;;;;;5198331;28;20112;-73
2023/01/19 14:13:39;;;;;;;22.30;12.98;;;;;;;;;;5198509;28;20034;-73
2023/01/19 14:16:14;;;;;;;21.60;12.30;;;;;;;;;;5198536;28;20385;-73
2023/01/19 14:18:57;;;;;;;20.30;12.90;;;;;;;;;;5197297;28;20110;-73
2023/01/19 14:21:41;;;;;;;20.05;13.65;;;;;;;;;;5198202;28;20015;-73
2023/01/19 14:24:17;;;;;;;18.95;12.63;;;;;;;;;;5198404;28;20054;-76
2023/01/19 14:26:53;;;;;;;19.00;12.77;;;;;;;;;;5197652;28;20478;-74
2023/01/19 14:29:26;;;;;;;22.42;12.98;;;;;;;;;;5197702;28;20050;-75
2023/01/19 14:32:00;;;;;;;19.35;12.82;;;;;;;;;;5189193;28;20029;-74
2023/01/19 14:34:34;;;;;;;21.15;12.48;;;;;;;;;;5197618;28;20038;-74
2023/01/19 14:37:24;;;;;;;15.75;11.52;;;;;;;;;;5198196;28;20526;-74
2023/01/19 14:40:00;;;;;;;17.30;11.15;;;;;;;;;;5197246;28;20035;-75
2023/01/19 14:42:33;;;;;;;19.08;11.63;;;;;;;;;;5198132;28;20023;-74
2023/01/19 14:45:24;;;;;;;17.65;11.70;;;;;;;;;;5197762;28;20105;-75
2023/01/19 14:47:59;;;;;;;15.95;10.85;;;;;;;;;;5197174;28;20037;-74
2023/01/19 14:50:39;;;;;;;15.70;10.63;;;;;;;;;;5197884;28;20022;-74
2023/01/19 14:53:10;;;;;;;;;;;;;;;;;;5196614;28;20034;-73
2023/01/19 14:55:44;;;;;;;18.40;10.18;;;;;;;;;;5197396;28;19906;-74
2023/01/19 14:58:16;;;;;;;20.42;10.60;;;;;;;;;;5197756;28;20029;-73
2023/01/19 15:00:48;;;;;;;17.58;11.65;;;;;;;;;;5196878;28;20080;-74
2023/01/19 15:03:19;;;;;;;17.95;11.65;;;;;;;;;;5197729;28;20451;-74
2023/01/19 15:05:51;;;;;;;20.48;12.43;;;;;;;;;;5197876;28;20462;-75
2023/01/19 15:08:25;;;;;;;22.15;12.20;;;;;;;;;;5196904;28;20101;-75
2023/01/19 15:10:57;;;;;;;18.05;12.10;;;;;;;;;;5197842;28;20038;-74
2023/01/19 15:13:28;;;;;;;19.33;12.13;;;;;;;;;;5197415;28;20031;-73
2023/01/19 15:15:59;;;;;;;19.58;12.27;;;;;;;;;;5196687;28;20018;-74
2023/01/19 15:18:31;;;;;;;23.60;11.65;;;;;;;;;;5197398;28;20689;-73
2023/01/19 15:21:02;;;;;;;21.20;11.20;;;;;;;;;;5196690;28;20049;-74
2023/01/19 15:23:33;;;;;;;16.40;10.55;;;;;;;;;;5197371;28;20014;-74
2023/01/19 15:26:04;;;;;;;17.25;11.02;;;;;;;;;;5197373;28;20053;-75